Terminal Aerodrome Forecast
Issued by NWS

Home | Current Version | Previous Version | Text Only | Print | Product List | Glossary On
Versions: 1 2 3 4 5 6 7 8 9 10 11 12 13 14 15 16 17
616
FTUS43 KLSX 221222 AAA
TAFUIN
TAF AMD
KUIN 221222Z 2212/2312 10012KT P6SM BKN120
     FM230300 11008KT P6SM BKN150=

USA.gov is the U.S. government's official web portal to all federal, state and local government web resources and services.